sensor_id;sensor_type;location;lat;lon;timestamp;P1;durP1;ratioP1;P2;durP2;ratioP2
70667;SDS011;58242;51.250;-1.118;2023-05-07T00:01:01;1.75;;;1.65;;
70667;SDS011;58242;51.250;-1.118;2023-05-07T00:03:27;1.80;;;1.70;;
70667;SDS011;58242;51.250;-1.118;2023-05-07T00:05:52;2.08;;;1.98;;
70667;SDS011;58242;51.250;-1.118;2023-05-07T00:08:18;2.30;;;2.10;;
70667;SDS011;58242;51.250;-1.118;2023-05-07T00:10:43;2.00;;;1.90;;
70667;SDS011;58242;51.250;-1.118;2023-05-07T00:13:09;2.00;;;1.90;;
70667;SDS011;58242;51.250;-1.118;2023-05-07T00:15:35;2.10;;;2.00;;
70667;SDS011;58242;51.250;-1.118;2023-05-07T00:18:00;2.00;;;1.90;;
70667;SDS011;58242;51.250;-1.118;2023-05-07T00:20:25;1.83;;;1.73;;
70667;SDS011;58242;51.250;-1.118;2023-05-07T00:22:51;2.20;;;2.10;;
70667;SDS011;58242;51.250;-1.118;2023-05-07T00:25:16;2.15;;;1.95;;
70667;SDS011;58242;51.250;-1.118;2023-05-07T00:27:41;1.98;;;1.88;;
70667;SDS011;58242;51.250;-1.118;2023-05-07T00:30:07;2.20;;;2.10;;
70667;SDS011;58242;51.250;-1.118;2023-05-07T00:32:33;2.20;;;2.00;;
70667;SDS011;58242;51.250;-1.118;2023-05-07T00:34:58;1.90;;;1.80;;
70667;SDS011;58242;51.250;-1.118;2023-05-07T00:37:24;2.95;;;1.85;;
70667;SDS011;58242;51.250;-1.118;2023-05-07T00:39:49;1.77;;;1.67;;
70667;SDS011;58242;51.250;-1.118;2023-05-07T00:42:14;2.05;;;1.95;;
70667;SDS011;58242;51.250;-1.118;2023-05-07T00:44:41;1.60;;;1.50;;
70667;SDS011;58242;51.250;-1.118;2023-05-07T00:47:06;1.88;;;1.77;;
70667;SDS011;58242;51.250;-1.118;2023-05-07T00:49:35;2.00;;;1.90;;
70667;SDS011;58242;51.250;-1.118;2023-05-07T00:52:03;2.00;;;1.90;;
70667;SDS011;58242;51.250;-1.118;2023-05-07T00:54:30;2.22;;;2.08;;
70667;SDS011;58242;51.250;-1.118;2023-05-07T00:56:56;2.15;;;1.90;;
70667;SDS011;58242;51.250;-1.118;2023-05-07T00:59:21;2.30;;;2.20;;
70667;SDS011;58242;51.250;-1.118;2023-05-07T01:01:46;2.85;;;2.60;;
70667;SDS011;58242;51.250;-1.118;2023-05-07T01:04:12;3.08;;;2.78;;
70667;SDS011;58242;51.250;-1.118;2023-05-07T01:06:37;2.42;;;2.22;;
70667;SDS011;58242;51.250;-1.118;2023-05-07T01:09:03;2.58;;;2.38;;
70667;SDS011;58242;51.250;-1.118;2023-05-07T01:11:29;2.35;;;2.25;;
70667;SDS011;58242;51.250;-1.118;2023-05-07T01:13:54;3.92;;;3.25;;
70667;SDS011;58242;51.250;-1.118;2023-05-07T01:16:21;3.10;;;2.80;;
70667;SDS011;58242;51.250;-1.118;2023-05-07T01:18:47;2.10;;;1.95;;
70667;SDS011;58242;51.250;-1.118;2023-05-07T01:21:13;2.63;;;2.03;;
70667;SDS011;58242;51.250;-1.118;2023-05-07T01:23:41;2.05;;;1.95;;
70667;SDS011;58242;51.250;-1.118;2023-05-07T01:26:07;2.20;;;2.00;;
70667;SDS011;58242;51.250;-1.118;2023-05-07T01:28:32;2.67;;;2.47;;
70667;SDS011;58242;51.250;-1.118;2023-05-07T01:31:01;2.75;;;2.47;;
70667;SDS011;58242;51.250;-1.118;2023-05-07T01:33:29;2.40;;;2.20;;
70667;SDS011;58242;51.250;-1.118;2023-05-07T01:38:25;2.65;;;2.45;;
70667;SDS011;58242;51.250;-1.118;2023-05-07T01:40:52;3.47;;;3.17;;
70667;SDS011;58242;51.250;-1.118;2023-05-07T01:43:18;2.22;;;2.03;;
70667;SDS011;58242;51.250;-1.118;2023-05-07T01:45:44;2.20;;;2.10;;
70667;SDS011;58242;51.250;-1.118;2023-05-07T01:48:10;2.50;;;2.30;;
70667;SDS011;58242;51.250;-1.118;2023-05-07T01:50:36;2.53;;;2.42;;
70667;SDS011;58242;51.250;-1.118;2023-05-07T01:53:02;2.70;;;2.47;;
70667;SDS011;58242;51.250;-1.118;2023-05-07T01:55:27;2.60;;;2.40;;
70667;SDS011;58242;51.250;-1.118;2023-05-07T01:57:53;3.55;;;2.70;;
70667;SDS011;58242;51.250;-1.118;2023-05-07T02:00:18;3.75;;;2.95;;
70667;SDS011;58242;51.250;-1.118;2023-05-07T02:02:44;3.20;;;2.90;;
70667;SDS011;58242;51.250;-1.118;2023-05-07T02:05:09;2.88;;;2.67;;
70667;SDS011;58242;51.250;-1.118;2023-05-07T02:07:35;2.92;;;2.70;;
70667;SDS011;58242;51.250;-1.118;2023-05-07T02:10:00;3.33;;;3.03;;
70667;SDS011;58242;51.250;-1.118;2023-05-07T02:12:25;3.95;;;3.55;;
70667;SDS011;58242;51.250;-1.118;2023-05-07T02:14:51;4.05;;;3.30;;
70667;SDS011;58242;51.250;-1.118;2023-05-07T02:17:16;3.22;;;2.92;;
70667;SDS011;58242;51.250;-1.118;2023-05-07T02:19:41;3.50;;;3.20;;
70667;SDS011;58242;51.250;-1.118;2023-05-07T02:22:07;6.50;;;3.28;;
70667;SDS011;58242;51.250;-1.118;2023-05-07T02:24:32;3.00;;;2.72;;
70667;SDS011;58242;51.250;-1.118;2023-05-07T02:26:58;3.85;;;3.50;;
70667;SDS011;58242;51.250;-1.118;2023-05-07T02:29:23;3.53;;;3.22;;
70667;SDS011;58242;51.250;-1.118;2023-05-07T02:31:48;3.72;;;3.42;;
70667;SDS011;58242;51.250;-1.118;2023-05-07T02:36:43;4.43;;;3.70;;
70667;SDS011;58242;51.250;-1.118;2023-05-07T02:39:08;4.13;;;3.72;;
70667;SDS011;58242;51.250;-1.118;2023-05-07T02:41:34;4.53;;;4.13;;
70667;SDS011;58242;51.250;-1.118;2023-05-07T02:43:59;8.57;;;4.65;;
70667;SDS011;58242;51.250;-1.118;2023-05-07T02:46:24;6.55;;;4.95;;
70667;SDS011;58242;51.250;-1.118;2023-05-07T02:48:50;7.13;;;5.22;;
70667;SDS011;58242;51.250;-1.118;2023-05-07T02:51:16;7.07;;;4.93;;
70667;SDS011;58242;51.250;-1.118;2023-05-07T02:53:44;5.40;;;4.35;;
70667;SDS011;58242;51.250;-1.118;2023-05-07T02:56:10;5.18;;;4.60;;
70667;SDS011;58242;51.250;-1.118;2023-05-07T02:58:35;5.72;;;4.78;;
70667;SDS011;58242;51.250;-1.118;2023-05-07T03:01:01;8.07;;;5.60;;
70667;SDS011;58242;51.250;-1.118;2023-05-07T03:03:26;6.75;;;5.30;;
70667;SDS011;58242;51.250;-1.118;2023-05-07T03:05:51;6.55;;;5.35;;
70667;SDS011;58242;51.250;-1.118;2023-05-07T03:08:16;6.68;;;5.93;;
70667;SDS011;58242;51.250;-1.118;2023-05-07T03:10:42;6.05;;;5.13;;
70667;SDS011;58242;51.250;-1.118;2023-05-07T03:13:07;5.70;;;5.15;;
70667;SDS011;58242;51.250;-1.118;2023-05-07T03:15:33;6.88;;;5.40;;
70667;SDS011;58242;51.250;-1.118;2023-05-07T03:17:58;4.50;;;4.07;;
70667;SDS011;58242;51.250;-1.118;2023-05-07T03:20:23;4.90;;;4.50;;
70667;SDS011;58242;51.250;-1.118;2023-05-07T03:22:48;6.75;;;5.47;;
70667;SDS011;58242;51.250;-1.118;2023-05-07T03:25:14;4.93;;;4.43;;
70667;SDS011;58242;51.250;-1.118;2023-05-07T03:27:40;4.32;;;3.95;;
70667;SDS011;58242;51.250;-1.118;2023-05-07T03:30:07;4.97;;;3.88;;
70667;SDS011;58242;51.250;-1.118;2023-05-07T03:32:33;4.80;;;4.40;;
70667;SDS011;58242;51.250;-1.118;2023-05-07T03:35:00;4.32;;;3.92;;
70667;SDS011;58242;51.250;-1.118;2023-05-07T03:37:25;4.57;;;4.18;;
70667;SDS011;58242;51.250;-1.118;2023-05-07T03:39:50;3.47;;;3.20;;
70667;SDS011;58242;51.250;-1.118;2023-05-07T03:42:16;3.97;;;3.58;;
70667;SDS011;58242;51.250;-1.118;2023-05-07T03:44:41;6.18;;;5.00;;
70667;SDS011;58242;51.250;-1.118;2023-05-07T03:47:06;5.50;;;4.97;;
70667;SDS011;58242;51.250;-1.118;2023-05-07T03:49:32;5.22;;;4.72;;
70667;SDS011;58242;51.250;-1.118;2023-05-07T03:51:58;4.63;;;4.22;;
70667;SDS011;58242;51.250;-1.118;2023-05-07T03:54:23;6.43;;;4.80;;
70667;SDS011;58242;51.250;-1.118;2023-05-07T03:56:48;3.45;;;3.15;;
70667;SDS011;58242;51.250;-1.118;2023-05-07T03:59:13;3.90;;;3.60;;
70667;SDS011;58242;51.250;-1.118;2023-05-07T04:01:39;5.28;;;4.55;;
70667;SDS011;58242;51.250;-1.118;2023-05-07T04:04:05;5.38;;;4.88;;
70667;SDS011;58242;51.250;-1.118;2023-05-07T04:06:30;4.68;;;4.25;;
70667;SDS011;58242;51.250;-1.118;2023-05-07T04:08:56;5.80;;;4.95;;
70667;SDS011;58242;51.250;-1.118;2023-05-07T04:11:21;4.50;;;3.65;;
70667;SDS011;58242;51.250;-1.118;2023-05-07T04:13:46;5.15;;;4.30;;
70667;SDS011;58242;51.250;-1.118;2023-05-07T04:16:12;4.47;;;4.07;;
70667;SDS011;58242;51.250;-1.118;2023-05-07T04:18:37;3.83;;;3.53;;
70667;SDS011;58242;51.250;-1.118;2023-05-07T04:21:03;5.13;;;4.38;;
70667;SDS011;58242;51.250;-1.118;2023-05-07T04:23:29;4.05;;;3.75;;
70667;SDS011;58242;51.250;-1.118;2023-05-07T04:25:54;5.68;;;5.05;;
70667;SDS011;58242;51.250;-1.118;2023-05-07T04:28:20;4.95;;;4.53;;
70667;SDS011;58242;51.250;-1.118;2023-05-07T04:30:45;4.88;;;4.47;;
70667;SDS011;58242;51.250;-1.118;2023-05-07T04:33:11;6.95;;;6.10;;
70667;SDS011;58242;51.250;-1.118;2023-05-07T04:35:36;5.45;;;4.95;;
70667;SDS011;58242;51.250;-1.118;2023-05-07T04:38:02;5.55;;;5.03;;
70667;SDS011;58242;51.250;-1.118;2023-05-07T04:40:27;5.85;;;5.25;;
70667;SDS011;58242;51.250;-1.118;2023-05-07T04:42:52;5.22;;;4.70;;
70667;SDS011;58242;51.250;-1.118;2023-05-07T04:45:18;4.10;;;3.70;;
70667;SDS011;58242;51.250;-1.118;2023-05-07T04:47:43;4.50;;;4.10;;
70667;SDS011;58242;51.250;-1.118;2023-05-07T04:50:09;5.50;;;5.00;;
70667;SDS011;58242;51.250;-1.118;2023-05-07T04:52:35;4.80;;;4.40;;
70667;SDS011;58242;51.250;-1.118;2023-05-07T04:55:01;5.22;;;4.72;;
70667;SDS011;58242;51.250;-1.118;2023-05-07T04:57:26;5.40;;;4.53;;
70667;SDS011;58242;51.250;-1.118;2023-05-07T04:59:52;3.55;;;3.25;;
70667;SDS011;58242;51.250;-1.118;2023-05-07T05:02:18;5.03;;;4.55;;
70667;SDS011;58242;51.250;-1.118;2023-05-07T05:04:43;3.92;;;3.63;;
70667;SDS011;58242;51.250;-1.118;2023-05-07T05:07:09;4.55;;;4.15;;
70667;SDS011;58242;51.250;-1.118;2023-05-07T05:09:34;4.20;;;3.80;;
70667;SDS011;58242;51.250;-1.118;2023-05-07T05:11:59;3.50;;;3.20;;
70667;SDS011;58242;51.250;-1.118;2023-05-07T05:14:24;3.55;;;3.25;;
70667;SDS011;58242;51.250;-1.118;2023-05-07T05:16:50;3.53;;;3.22;;
70667;SDS011;58242;51.250;-1.118;2023-05-07T05:19:15;5.63;;;5.05;;
70667;SDS011;58242;51.250;-1.118;2023-05-07T05:21:41;4.28;;;3.88;;
70667;SDS011;58242;51.250;-1.118;2023-05-07T05:24:06;3.35;;;3.08;;
70667;SDS011;58242;51.250;-1.118;2023-05-07T05:26:32;3.10;;;2.85;;
70667;SDS011;58242;51.250;-1.118;2023-05-07T05:28:57;3.67;;;3.28;;
70667;SDS011;58242;51.250;-1.118;2023-05-07T05:31:23;3.40;;;3.00;;
70667;SDS011;58242;51.250;-1.118;2023-05-07T05:33:48;3.47;;;3.10;;
70667;SDS011;58242;51.250;-1.118;2023-05-07T05:36:13;3.35;;;3.05;;
70667;SDS011;58242;51.250;-1.118;2023-05-07T05:38:39;3.03;;;2.83;;
70667;SDS011;58242;51.250;-1.118;2023-05-07T05:41:05;2.72;;;2.53;;
70667;SDS011;58242;51.250;-1.118;2023-05-07T05:43:30;2.35;;;2.25;;
70667;SDS011;58242;51.250;-1.118;2023-05-07T05:45:56;2.60;;;2.47;;
70667;SDS011;58242;51.250;-1.118;2023-05-07T05:48:22;2.40;;;2.20;;
70667;SDS011;58242;51.250;-1.118;2023-05-07T05:50:48;2.08;;;1.98;;
70667;SDS011;58242;51.250;-1.118;2023-05-07T05:53:13;2.10;;;2.00;;
70667;SDS011;58242;51.250;-1.118;2023-05-07T05:55:38;2.05;;;1.95;;
70667;SDS011;58242;51.250;-1.118;2023-05-07T05:58:04;2.10;;;1.90;;
70667;SDS011;58242;51.250;-1.118;2023-05-07T06:00:29;2.00;;;1.90;;
70667;SDS011;58242;51.250;-1.118;2023-05-07T06:02:55;2.00;;;1.90;;
70667;SDS011;58242;51.250;-1.118;2023-05-07T06:05:20;1.90;;;1.80;;
70667;SDS011;58242;51.250;-1.118;2023-05-07T06:07:46;1.90;;;1.80;;
70667;SDS011;58242;51.250;-1.118;2023-05-07T06:10:11;2.00;;;1.90;;
70667;SDS011;58242;51.250;-1.118;2023-05-07T06:12:36;2.10;;;1.90;;
70667;SDS011;58242;51.250;-1.118;2023-05-07T06:15:02;2.00;;;1.90;;
70667;SDS011;58242;51.250;-1.118;2023-05-07T06:17:27;2.20;;;2.10;;
70667;SDS011;58242;51.250;-1.118;2023-05-07T06:19:53;2.10;;;2.00;;
70667;SDS011;58242;51.250;-1.118;2023-05-07T06:22:18;2.05;;;1.95;;
70667;SDS011;58242;51.250;-1.118;2023-05-07T06:24:43;2.38;;;2.28;;
70667;SDS011;58242;51.250;-1.118;2023-05-07T06:27:09;2.00;;;1.90;;
70667;SDS011;58242;51.250;-1.118;2023-05-07T06:29:34;2.20;;;2.10;;
70667;SDS011;58242;51.250;-1.118;2023-05-07T06:32:09;1.95;;;1.85;;
70667;SDS011;58242;51.250;-1.118;2023-05-07T06:34:36;2.13;;;1.92;;
70667;SDS011;58242;51.250;-1.118;2023-05-07T06:37:01;1.85;;;1.75;;
70667;SDS011;58242;51.250;-1.118;2023-05-07T06:39:27;1.90;;;1.80;;
70667;SDS011;58242;51.250;-1.118;2023-05-07T06:41:52;1.90;;;1.80;;
70667;SDS011;58242;51.250;-1.118;2023-05-07T06:44:18;2.00;;;1.90;;
70667;SDS011;58242;51.250;-1.118;2023-05-07T06:46:43;1.60;;;1.60;;
70667;SDS011;58242;51.250;-1.118;2023-05-07T06:49:09;1.80;;;1.70;;
70667;SDS011;58242;51.250;-1.118;2023-05-07T06:51:34;1.80;;;1.70;;
70667;SDS011;58242;51.250;-1.118;2023-05-07T06:53:59;1.40;;;1.40;;
70667;SDS011;58242;51.250;-1.118;2023-05-07T06:56:25;1.92;;;1.80;;
70667;SDS011;58242;51.250;-1.118;2023-05-07T06:58:50;2.08;;;1.98;;
70667;SDS011;58242;51.250;-1.118;2023-05-07T07:01:15;1.80;;;1.70;;
70667;SDS011;58242;51.250;-1.118;2023-05-07T07:03:41;1.67;;;1.58;;
70667;SDS011;58242;51.250;-1.118;2023-05-07T07:06:06;2.03;;;1.92;;
70667;SDS011;58242;51.250;-1.118;2023-05-07T07:08:32;2.38;;;2.28;;
70667;SDS011;58242;51.250;-1.118;2023-05-07T07:10:57;2.15;;;2.03;;
70667;SDS011;58242;51.250;-1.118;2023-05-07T07:13:22;2.38;;;2.17;;
70667;SDS011;58242;51.250;-1.118;2023-05-07T07:15:48;2.33;;;2.13;;
70667;SDS011;58242;51.250;-1.118;2023-05-07T07:18:13;2.00;;;1.90;;
70667;SDS011;58242;51.250;-1.118;2023-05-07T07:20:38;2.17;;;2.08;;
70667;SDS011;58242;51.250;-1.118;2023-05-07T07:23:04;3.38;;;2.42;;
70667;SDS011;58242;51.250;-1.118;2023-05-07T07:25:29;2.33;;;2.22;;
70667;SDS011;58242;51.250;-1.118;2023-05-07T07:27:55;2.25;;;2.15;;
70667;SDS011;58242;51.250;-1.118;2023-05-07T07:30:20;1.88;;;1.77;;
70667;SDS011;58242;51.250;-1.118;2023-05-07T07:32:45;2.38;;;2.28;;
70667;SDS011;58242;51.250;-1.118;2023-05-07T07:35:11;2.53;;;2.38;;
70667;SDS011;58242;51.250;-1.118;2023-05-07T07:37:36;1.75;;;1.65;;
70667;SDS011;58242;51.250;-1.118;2023-05-07T07:40:02;2.00;;;1.90;;
70667;SDS011;58242;51.250;-1.118;2023-05-07T07:42:28;2.00;;;1.90;;
70667;SDS011;58242;51.250;-1.118;2023-05-07T07:44:54;2.42;;;2.22;;
70667;SDS011;58242;51.250;-1.118;2023-05-07T07:47:19;2.72;;;2.53;;
70667;SDS011;58242;51.250;-1.118;2023-05-07T07:49:45;1.92;;;1.83;;
70667;SDS011;58242;51.250;-1.118;2023-05-07T07:52:10;2.08;;;1.98;;
70667;SDS011;58242;51.250;-1.118;2023-05-07T07:54:35;2.00;;;1.90;;
70667;SDS011;58242;51.250;-1.118;2023-05-07T07:57:00;1.98;;;1.88;;
70667;SDS011;58242;51.250;-1.118;2023-05-07T07:59:26;2.60;;;2.50;;
70667;SDS011;58242;51.250;-1.118;2023-05-07T08:01:52;3.13;;;3.00;;
70667;SDS011;58242;51.250;-1.118;2023-05-07T08:04:20;2.45;;;2.35;;
70667;SDS011;58242;51.250;-1.118;2023-05-07T08:06:45;2.70;;;2.50;;
70667;SDS011;58242;51.250;-1.118;2023-05-07T08:09:11;2.10;;;2.00;;
70667;SDS011;58242;51.250;-1.118;2023-05-07T08:11:36;2.60;;;2.50;;
70667;SDS011;58242;51.250;-1.118;2023-05-07T08:14:01;2.78;;;2.58;;
70667;SDS011;58242;51.250;-1.118;2023-05-07T08:16:28;2.38;;;2.28;;
70667;SDS011;58242;51.250;-1.118;2023-05-07T08:18:53;2.70;;;2.60;;
70667;SDS011;58242;51.250;-1.118;2023-05-07T08:21:19;2.58;;;2.47;;
70667;SDS011;58242;51.250;-1.118;2023-05-07T08:23:45;2.30;;;2.20;;
70667;SDS011;58242;51.250;-1.118;2023-05-07T08:26:10;2.50;;;2.40;;
70667;SDS011;58242;51.250;-1.118;2023-05-07T08:28:36;2.33;;;2.22;;
70667;SDS011;58242;51.250;-1.118;2023-05-07T08:31:01;1.90;;;1.80;;
70667;SDS011;58242;51.250;-1.118;2023-05-07T08:33:27;2.30;;;2.20;;
70667;SDS011;58242;51.250;-1.118;2023-05-07T08:35:52;2.30;;;2.20;;
70667;SDS011;58242;51.250;-1.118;2023-05-07T08:38:17;1.83;;;1.73;;
70667;SDS011;58242;51.250;-1.118;2023-05-07T08:40:43;2.17;;;2.08;;
70667;SDS011;58242;51.250;-1.118;2023-05-07T08:43:08;2.22;;;2.03;;
70667;SDS011;58242;51.250;-1.118;2023-05-07T08:48:05;2.03;;;1.92;;
70667;SDS011;58242;51.250;-1.118;2023-05-07T08:50:37;2.13;;;2.03;;
70667;SDS011;58242;51.250;-1.118;2023-05-07T08:53:03;2.20;;;2.10;;
70667;SDS011;58242;51.250;-1.118;2023-05-07T08:55:29;2.00;;;1.90;;
70667;SDS011;58242;51.250;-1.118;2023-05-07T08:57:55;2.40;;;2.30;;
70667;SDS011;58242;51.250;-1.118;2023-05-07T09:00:20;2.10;;;2.00;;
70667;SDS011;58242;51.250;-1.118;2023-05-07T09:02:46;2.20;;;2.10;;
70667;SDS011;58242;51.250;-1.118;2023-05-07T09:05:11;2.13;;;2.03;;
70667;SDS011;58242;51.250;-1.118;2023-05-07T09:07:36;2.05;;;1.95;;
70667;SDS011;58242;51.250;-1.118;2023-05-07T09:10:02;1.95;;;1.85;;
70667;SDS011;58242;51.250;-1.118;2023-05-07T09:12:29;1.80;;;1.70;;
70667;SDS011;58242;51.250;-1.118;2023-05-07T09:14:54;2.65;;;2.45;;
70667;SDS011;58242;51.250;-1.118;2023-05-07T09:17:20;2.80;;;2.70;;
70667;SDS011;58242;51.250;-1.118;2023-05-07T09:19:45;2.30;;;2.20;;
70667;SDS011;58242;51.250;-1.118;2023-05-07T09:22:11;2.03;;;1.92;;
70667;SDS011;58242;51.250;-1.118;2023-05-07T09:24:36;2.30;;;2.20;;
70667;SDS011;58242;51.250;-1.118;2023-05-07T09:27:06;3.10;;;2.90;;
70667;SDS011;58242;51.250;-1.118;2023-05-07T09:29:33;2.38;;;2.28;;
70667;SDS011;58242;51.250;-1.118;2023-05-07T09:32:04;2.72;;;2.63;;
70667;SDS011;58242;51.250;-1.118;2023-05-07T09:34:30;2.42;;;2.30;;
70667;SDS011;58242;51.250;-1.118;2023-05-07T09:36:56;3.17;;;3.08;;
70667;SDS011;58242;51.250;-1.118;2023-05-07T09:39:23;2.05;;;1.95;;
70667;SDS011;58242;51.250;-1.118;2023-05-07T09:41:49;2.83;;;2.72;;
70667;SDS011;58242;51.250;-1.118;2023-05-07T09:44:16;2.42;;;2.33;;
70667;SDS011;58242;51.250;-1.118;2023-05-07T09:46:42;2.10;;;2.00;;
70667;SDS011;58242;51.250;-1.118;2023-05-07T09:49:10;2.92;;;2.83;;
70667;SDS011;58242;51.250;-1.118;2023-05-07T09:51:45;2.78;;;2.67;;
70667;SDS011;58242;51.250;-1.118;2023-05-07T09:54:14;1.70;;;1.70;;
70667;SDS011;58242;51.250;-1.118;2023-05-07T09:56:40;3.03;;;2.92;;
70667;SDS011;58242;51.250;-1.118;2023-05-07T09:59:08;2.47;;;2.38;;
70667;SDS011;58242;51.250;-1.118;2023-05-07T10:01:37;3.08;;;2.97;;
70667;SDS011;58242;51.250;-1.118;2023-05-07T10:04:04;2.40;;;2.30;;
70667;SDS011;58242;51.250;-1.118;2023-05-07T10:06:30;2.20;;;2.10;;
70667;SDS011;58242;51.250;-1.118;2023-05-07T10:08:56;2.33;;;2.20;;
70667;SDS011;58242;51.250;-1.118;2023-05-07T10:11:22;2.70;;;2.60;;
70667;SDS011;58242;51.250;-1.118;2023-05-07T10:13:48;2.47;;;2.38;;
70667;SDS011;58242;51.250;-1.118;2023-05-07T10:16:14;2.83;;;2.72;;
70667;SDS011;58242;51.250;-1.118;2023-05-07T10:18:40;2.05;;;1.95;;
70667;SDS011;58242;51.250;-1.118;2023-05-07T10:23:49;1.92;;;1.83;;
70667;SDS011;58242;51.250;-1.118;2023-05-07T10:26:17;2.10;;;2.00;;
70667;SDS011;58242;51.250;-1.118;2023-05-07T10:28:44;2.53;;;2.42;;
70667;SDS011;58242;51.250;-1.118;2023-05-07T10:33:59;2.80;;;2.60;;
70667;SDS011;58242;51.250;-1.118;2023-05-07T10:36:26;2.38;;;2.28;;
70667;SDS011;58242;51.250;-1.118;2023-05-07T10:38:52;2.60;;;2.50;;
70667;SDS011;58242;51.250;-1.118;2023-05-07T10:41:18;2.10;;;2.00;;
70667;SDS011;58242;51.250;-1.118;2023-05-07T10:43:46;2.10;;;2.00;;
70667;SDS011;58242;51.250;-1.118;2023-05-07T10:46:14;1.88;;;1.77;;
70667;SDS011;58242;51.250;-1.118;2023-05-07T10:51:25;2.80;;;2.60;;
70667;SDS011;58242;51.250;-1.118;2023-05-07T10:56:34;2.80;;;2.60;;
70667;SDS011;58242;51.250;-1.118;2023-05-07T11:01:57;2.58;;;2.47;;
70667;SDS011;58242;51.250;-1.118;2023-05-07T11:04:23;2.22;;;2.00;;
70667;SDS011;58242;51.250;-1.118;2023-05-07T11:12:16;2.13;;;2.03;;
70667;SDS011;58242;51.250;-1.118;2023-05-07T11:17:07;2.30;;;2.20;;
70667;SDS011;58242;51.250;-1.118;2023-05-07T11:19:52;2.42;;;2.33;;
70667;SDS011;58242;51.250;-1.118;2023-05-07T11:24:57;2.58;;;2.40;;
70667;SDS011;58242;51.250;-1.118;2023-05-07T11:27:24;2.50;;;2.40;;
70667;SDS011;58242;51.250;-1.118;2023-05-07T11:29:51;2.55;;;2.45;;
70667;SDS011;58242;51.250;-1.118;2023-05-07T11:32:22;2.30;;;2.20;;
70667;SDS011;58242;51.250;-1.118;2023-05-07T11:34:52;2.50;;;2.40;;
70667;SDS011;58242;51.250;-1.118;2023-05-07T11:37:17;2.50;;;2.40;;
70667;SDS011;58242;51.250;-1.118;2023-05-07T11:39:43;2.50;;;2.25;;
70667;SDS011;58242;51.250;-1.118;2023-05-07T11:45:01;1.90;;;1.80;;
70667;SDS011;58242;51.250;-1.118;2023-05-07T11:47:26;2.40;;;2.30;;
70667;SDS011;58242;51.250;-1.118;2023-05-07T11:49:55;2.28;;;2.08;;
70667;SDS011;58242;51.250;-1.118;2023-05-07T11:52:21;1.70;;;1.60;;
70667;SDS011;58242;51.250;-1.118;2023-05-07T11:54:48;1.98;;;1.88;;
70667;SDS011;58242;51.250;-1.118;2023-05-07T11:57:25;2.20;;;2.10;;
70667;SDS011;58242;51.250;-1.118;2023-05-07T11:59:54;2.55;;;2.08;;
70667;SDS011;58242;51.250;-1.118;2023-05-07T12:02:19;1.90;;;1.80;;
70667;SDS011;58242;51.250;-1.118;2023-05-07T12:04:45;1.63;;;1.52;;
70667;SDS011;58242;51.250;-1.118;2023-05-07T12:07:13;2.05;;;1.95;;
70667;SDS011;58242;51.250;-1.118;2023-05-07T12:09:43;1.95;;;1.85;;
70667;SDS011;58242;51.250;-1.118;2023-05-07T12:12:09;1.85;;;1.85;;
70667;SDS011;58242;51.250;-1.118;2023-05-07T12:14:38;2.30;;;2.20;;
70667;SDS011;58242;51.250;-1.118;2023-05-07T12:17:05;1.67;;;1.67;;
70667;SDS011;58242;51.250;-1.118;2023-05-07T12:19:32;2.33;;;2.22;;
70667;SDS011;58242;51.250;-1.118;2023-05-07T12:21:58;2.25;;;2.05;;
70667;SDS011;58242;51.250;-1.118;2023-05-07T12:24:24;1.65;;;1.58;;
70667;SDS011;58242;51.250;-1.118;2023-05-07T12:26:49;5.60;;;1.90;;
70667;SDS011;58242;51.250;-1.118;2023-05-07T12:29:14;1.65;;;1.65;;
70667;SDS011;58242;51.250;-1.118;2023-05-07T12:31:40;2.35;;;2.20;;
70667;SDS011;58242;51.250;-1.118;2023-05-07T12:34:06;1.55;;;1.52;;
70667;SDS011;58242;51.250;-1.118;2023-05-07T12:36:38;1.40;;;1.40;;
70667;SDS011;58242;51.250;-1.118;2023-05-07T12:39:05;1.73;;;1.63;;
70667;SDS011;58242;51.250;-1.118;2023-05-07T12:41:35;2.65;;;1.88;;
70667;SDS011;58242;51.250;-1.118;2023-05-07T12:44:03;1.88;;;1.80;;
70667;SDS011;58242;51.250;-1.118;2023-05-07T12:46:29;2.03;;;1.93;;
70667;SDS011;58242;51.250;-1.118;2023-05-07T12:48:54;1.73;;;1.63;;
70667;SDS011;58242;51.250;-1.118;2023-05-07T12:51:20;1.73;;;1.67;;
70667;SDS011;58242;51.250;-1.118;2023-05-07T12:53:45;1.58;;;1.42;;
70667;SDS011;58242;51.250;-1.118;2023-05-07T12:56:10;2.10;;;2.00;;
70667;SDS011;58242;51.250;-1.118;2023-05-07T12:58:36;2.00;;;1.90;;
70667;SDS011;58242;51.250;-1.118;2023-05-07T13:01:06;2.10;;;2.00;;
70667;SDS011;58242;51.250;-1.118;2023-05-07T13:03:33;2.65;;;2.08;;
70667;SDS011;58242;51.250;-1.118;2023-05-07T13:06:07;2.00;;;1.90;;
70667;SDS011;58242;51.250;-1.118;2023-05-07T13:08:40;2.35;;;2.17;;
70667;SDS011;58242;51.250;-1.118;2023-05-07T13:11:08;2.13;;;2.00;;
70667;SDS011;58242;51.250;-1.118;2023-05-07T13:13:35;2.28;;;2.17;;
70667;SDS011;58242;51.250;-1.118;2023-05-07T13:16:02;2.50;;;2.30;;
70667;SDS011;58242;51.250;-1.118;2023-05-07T13:18:29;3.28;;;2.25;;
70667;SDS011;58242;51.250;-1.118;2023-05-07T13:20:55;2.40;;;1.88;;
70667;SDS011;58242;51.250;-1.118;2023-05-07T13:23:20;2.05;;;1.88;;
70667;SDS011;58242;51.250;-1.118;2023-05-07T13:25:46;1.80;;;1.70;;
70667;SDS011;58242;51.250;-1.118;2023-05-07T13:28:11;1.95;;;1.85;;
70667;SDS011;58242;51.250;-1.118;2023-05-07T13:30:37;1.65;;;1.55;;
70667;SDS011;58242;51.250;-1.118;2023-05-07T13:33:03;2.40;;;2.15;;
70667;SDS011;58242;51.250;-1.118;2023-05-07T13:35:28;1.80;;;1.70;;
70667;SDS011;58242;51.250;-1.118;2023-05-07T13:37:54;1.80;;;1.70;;
70667;SDS011;58242;51.250;-1.118;2023-05-07T13:40:20;1.95;;;1.80;;
70667;SDS011;58242;51.250;-1.118;2023-05-07T13:42:46;1.83;;;1.73;;
70667;SDS011;58242;51.250;-1.118;2023-05-07T13:45:12;1.60;;;1.50;;
70667;SDS011;58242;51.250;-1.118;2023-05-07T13:47:39;1.58;;;1.48;;
70667;SDS011;58242;51.250;-1.118;2023-05-07T13:50:05;1.15;;;1.15;;
70667;SDS011;58242;51.250;-1.118;2023-05-07T13:52:32;1.50;;;1.40;;
70667;SDS011;58242;51.250;-1.118;2023-05-07T13:54:57;1.92;;;1.83;;
70667;SDS011;58242;51.250;-1.118;2023-05-07T13:57:23;1.55;;;1.50;;
70667;SDS011;58242;51.250;-1.118;2023-05-07T13:59:48;1.67;;;1.58;;
70667;SDS011;58242;51.250;-1.118;2023-05-07T14:02:14;1.80;;;1.70;;
70667;SDS011;58242;51.250;-1.118;2023-05-07T14:04:40;2.15;;;1.92;;
70667;SDS011;58242;51.250;-1.118;2023-05-07T14:07:05;2.15;;;1.88;;
70667;SDS011;58242;51.250;-1.118;2023-05-07T14:09:30;1.90;;;1.80;;
70667;SDS011;58242;51.250;-1.118;2023-05-07T14:11:56;2.15;;;1.95;;
70667;SDS011;58242;51.250;-1.118;2023-05-07T14:14:21;2.63;;;2.05;;
70667;SDS011;58242;51.250;-1.118;2023-05-07T14:16:46;3.10;;;2.22;;
70667;SDS011;58242;51.250;-1.118;2023-05-07T14:19:12;2.03;;;1.50;;
70667;SDS011;58242;51.250;-1.118;2023-05-07T14:21:37;1.85;;;1.75;;
70667;SDS011;58242;51.250;-1.118;2023-05-07T14:24:03;2.05;;;1.95;;
70667;SDS011;58242;51.250;-1.118;2023-05-07T14:26:29;1.95;;;1.85;;
70667;SDS011;58242;51.250;-1.118;2023-05-07T14:28:54;3.42;;;2.00;;
70667;SDS011;58242;51.250;-1.118;2023-05-07T14:31:22;2.17;;;1.98;;
70667;SDS011;58242;51.250;-1.118;2023-05-07T14:33:47;1.98;;;1.88;;
70667;SDS011;58242;51.250;-1.118;2023-05-07T14:36:14;1.95;;;1.85;;
70667;SDS011;58242;51.250;-1.118;2023-05-07T14:38:40;2.00;;;1.90;;
70667;SDS011;58242;51.250;-1.118;2023-05-07T14:41:05;2.45;;;2.25;;
70667;SDS011;58242;51.250;-1.118;2023-05-07T14:43:31;2.22;;;2.03;;
70667;SDS011;58242;51.250;-1.118;2023-05-07T14:45:56;2.35;;;2.15;;
70667;SDS011;58242;51.250;-1.118;2023-05-07T14:48:21;2.42;;;2.28;;
70667;SDS011;58242;51.250;-1.118;2023-05-07T14:50:47;2.38;;;2.17;;
70667;SDS011;58242;51.250;-1.118;2023-05-07T14:53:13;2.75;;;2.55;;
70667;SDS011;58242;51.250;-1.118;2023-05-07T14:55:38;2.15;;;2.05;;
70667;SDS011;58242;51.250;-1.118;2023-05-07T14:58:04;3.75;;;2.58;;
70667;SDS011;58242;51.250;-1.118;2023-05-07T15:00:29;2.40;;;2.20;;